createdAt,value
2022-08-07T00:02:58.422Z,13.40
2022-08-07T00:08:02.909Z,13.30
2022-08-07T00:13:23.600Z,13.20
2022-08-07T00:18:30.600Z,13.20
2022-08-07T00:23:36.041Z,13.20
2022-08-07T00:28:55.434Z,13.10
2022-08-07T00:34:00.074Z,13.00
2022-08-07T00:39:03.280Z,12.90
2022-08-07T00:44:08.460Z,12.90
2022-08-07T00:49:11.926Z,12.80
2022-08-07T00:54:28.167Z,12.80
2022-08-07T00:59:35.808Z,12.80
2022-08-07T01:04:43.346Z,12.70
2022-08-07T01:10:05.737Z,12.70
2022-08-07T01:15:16.885Z,12.70
2022-08-07T01:20:30.655Z,12.70
2022-08-07T01:25:53.854Z,12.70
2022-08-07T01:31:02.886Z,12.70
2022-08-07T01:36:09.945Z,12.60
2022-08-07T01:41:25.824Z,12.60
2022-08-07T01:46:31.279Z,12.60
2022-08-07T01:52:01.948Z,12.50
2022-08-07T01:57:08.271Z,12.50
2022-08-07T02:03:05.671Z,12.30
2022-08-07T02:07:50.624Z,12.30
2022-08-07T02:12:59.980Z,12.20
2022-08-07T02:18:05.273Z,12.20
2022-08-07T02:23:11.701Z,12.20
2022-08-07T02:28:24.542Z,12.40
2022-08-07T02:33:32.877Z,12.50
2022-08-07T02:38:56.802Z,12.50
2022-08-07T02:44:04.219Z,12.50
2022-08-07T02:49:08.415Z,12.50
2022-08-07T02:54:14.027Z,12.60
2022-08-07T02:59:24.160Z,12.60
2022-08-07T03:04:31.560Z,12.70
2022-08-07T03:09:43.377Z,12.70
2022-08-07T03:14:52.226Z,12.60
2022-08-07T03:19:57.295Z,12.50
2022-08-07T03:25:04.502Z,12.50
2022-08-07T03:30:16.103Z,12.40
2022-08-07T03:35:26.420Z,12.30
2022-08-07T03:40:36.434Z,12.30
2022-08-07T03:45:43.459Z,12.30
2022-08-07T03:50:55.692Z,12.20
2022-08-07T03:56:04.004Z,12.10
2022-08-07T04:01:13.896Z,12.20
2022-08-07T04:06:37.679Z,12.10
2022-08-07T04:12:25.319Z,12.10
2022-08-07T04:18:31.348Z,12.10
2022-08-07T04:22:53.757Z,12.00
2022-08-07T04:28:06.852Z,11.90
2022-08-07T04:33:15.505Z,11.90
2022-08-07T04:38:20.019Z,11.90
2022-08-07T04:44:12.791Z,12.00
2022-08-07T04:49:14.932Z,12.10
2022-08-07T04:54:29.906Z,12.30
2022-08-07T05:00:11.678Z,12.50
2022-08-07T05:05:11.544Z,12.60
2022-08-07T05:10:40.479Z,12.70
2022-08-07T05:15:50.656Z,12.90
2022-08-07T05:20:58.466Z,13.00
2022-08-07T05:26:13.307Z,13.20
2022-08-07T05:31:35.360Z,13.30
2022-08-07T05:36:49.081Z,13.50
2022-08-07T05:42:02.207Z,13.60
2022-08-07T05:47:18.192Z,13.70
2022-08-07T05:52:30.048Z,13.80
2022-08-07T05:57:38.285Z,14.00
2022-08-07T06:02:51.287Z,14.20
2022-08-07T06:08:14.756Z,14.40
2022-08-07T06:14:12.076Z,14.70
2022-08-07T06:18:51.693Z,16.90
2022-08-07T06:24:37.596Z,21.00
2022-08-07T06:29:28.589Z,23.50
2022-08-07T06:34:33.372Z,25.00
2022-08-07T06:40:13.002Z,26.40
2022-08-07T06:45:03.678Z,26.50
2022-08-07T06:50:08.315Z,27.30
2022-08-07T06:55:32.465Z,26.40
2022-08-07T07:00:46.356Z,27.70
2022-08-07T07:06:03.485Z,28.70
2022-08-07T07:11:13.933Z,29.90
2022-08-07T07:16:49.474Z,29.90
2022-08-07T07:22:04.800Z,29.80
2022-08-07T07:27:25.088Z,29.60
2022-08-07T07:32:46.916Z,30.10
2022-08-07T07:38:02.547Z,28.80
2022-08-07T07:43:18.553Z,28.30
2022-08-07T07:48:35.741Z,28.50
2022-08-07T07:53:51.817Z,28.90
2022-08-07T07:58:59.986Z,28.70
2022-08-07T08:04:15.241Z,30.00
2022-08-07T08:09:30.279Z,30.50
2022-08-07T08:14:37.256Z,29.50
2022-08-07T08:20:18.198Z,29.50
2022-08-07T08:25:27.036Z,30.10
2022-08-07T08:30:51.086Z,29.80
2022-08-07T08:36:00.025Z,30.50
2022-08-07T08:41:58.622Z,29.50
2022-08-07T08:47:03.778Z,29.70
2022-08-07T08:52:19.011Z,29.80
2022-08-07T08:57:33.961Z,30.00
2022-08-07T09:02:49.670Z,30.00
2022-08-07T09:08:04.353Z,29.80
2022-08-07T09:19:53.676Z,29.30
2022-08-07T09:24:59.428Z,29.50
2022-08-07T09:30:13.933Z,30.10
2022-08-07T09:36:03.506Z,30.30
2022-08-07T09:41:20.001Z,31.70
2022-08-07T09:47:50.443Z,31.00
2022-08-07T09:58:48.528Z,30.80
2022-08-07T10:04:15.877Z,30.40
2022-08-07T10:09:59.129Z,30.10
2022-08-07T10:15:37.599Z,29.80
2022-08-07T10:21:03.830Z,29.90
2022-08-07T10:26:53.198Z,28.80
2022-08-07T10:38:09.619Z,28.40
2022-08-07T10:43:34.671Z,27.30
2022-08-07T10:48:51.543Z,27.10
2022-08-07T10:54:05.060Z,26.90
2022-08-07T10:59:21.210Z,26.80
2022-08-07T11:04:37.700Z,27.10
2022-08-07T11:10:09.503Z,26.90
2022-08-07T11:15:20.306Z,27.00
2022-08-07T11:20:41.120Z,27.30
2022-08-07T11:26:06.070Z,27.20
2022-08-07T11:31:21.226Z,27.20
2022-08-07T11:36:40.553Z,27.50
2022-08-07T11:42:01.646Z,27.80
2022-08-07T11:47:23.424Z,27.80
2022-08-07T11:52:52.451Z,27.60
2022-08-07T11:58:16.103Z,27.70
2022-08-07T12:03:52.654Z,27.70
2022-08-07T12:09:01.632Z,28.00
2022-08-07T12:14:12.443Z,28.00
2022-08-07T12:19:35.711Z,27.80
2022-08-07T12:26:00.302Z,27.90
2022-08-07T12:30:46.975Z,28.30
2022-08-07T12:35:58.521Z,28.30
2022-08-07T12:41:09.807Z,28.20
2022-08-07T12:46:36.217Z,27.90
2022-08-07T12:52:14.409Z,27.70
2022-08-07T12:57:19.437Z,27.60
2022-08-07T13:02:50.072Z,28.00
2022-08-07T13:08:22.398Z,28.20
2022-08-07T13:13:48.535Z,27.70
2022-08-07T13:19:00.463Z,27.50
2022-08-07T13:24:11.955Z,27.70
2022-08-07T13:29:26.702Z,27.80
2022-08-07T13:34:48.426Z,27.90
2022-08-07T13:40:36.702Z,27.80
2022-08-07T13:46:21.256Z,28.20
2022-08-07T13:51:28.142Z,27.90
2022-08-07T13:56:40.735Z,27.50
2022-08-07T14:01:51.564Z,27.60
2022-08-07T14:07:11.004Z,27.60
2022-08-07T14:12:28.041Z,27.70
2022-08-07T14:18:16.085Z,27.30
2022-08-07T14:23:06.125Z,26.60
2022-08-07T14:28:13.730Z,25.70
2022-08-07T14:33:23.330Z,26.00
2022-08-07T14:38:33.819Z,26.60
2022-08-07T14:43:57.411Z,27.00
2022-08-07T14:49:55.738Z,26.90
2022-08-07T15:00:05.354Z,27.10
2022-08-07T15:05:20.550Z,27.00
2022-08-07T15:10:29.650Z,27.00
2022-08-07T15:15:40.700Z,26.60
2022-08-07T15:20:55.026Z,26.50
2022-08-07T15:26:02.436Z,26.50
2022-08-07T15:31:12.111Z,26.50
2022-08-07T15:37:03.231Z,26.70
2022-08-07T15:47:59.899Z,26.40
2022-08-07T15:52:52.744Z,26.50
2022-08-07T15:58:00.324Z,26.50
2022-08-07T16:03:22.193Z,26.50
2022-08-07T16:08:38.654Z,26.10
2022-08-07T16:14:02.773Z,25.90
2022-08-07T16:19:42.041Z,25.80
2022-08-07T16:24:56.333Z,25.80
2022-08-07T16:30:30.131Z,25.70
2022-08-07T16:35:59.468Z,25.60
2022-08-07T16:41:41.694Z,25.40
2022-08-07T16:47:45.419Z,25.40
2022-08-07T16:53:26.821Z,25.30
2022-08-07T16:59:10.257Z,25.40
2022-08-07T17:04:14.025Z,25.20
2022-08-07T17:10:05.129Z,25.10
2022-08-07T17:14:59.296Z,24.80
2022-08-07T17:20:14.515Z,24.80
2022-08-07T17:25:47.820Z,24.80
2022-08-07T17:31:16.167Z,24.70
2022-08-07T17:36:26.207Z,24.50
2022-08-07T17:42:02.086Z,24.40
2022-08-07T17:47:16.946Z,24.30
2022-08-07T17:52:39.791Z,24.10
2022-08-07T17:57:58.778Z,24.10
2022-08-07T18:03:18.172Z,24.00
2022-08-07T18:08:31.182Z,24.00
2022-08-07T18:13:48.447Z,23.90
2022-08-07T18:21:03.530Z,23.80
2022-08-07T18:24:33.812Z,23.70
2022-08-07T18:30:08.444Z,23.50
2022-08-07T18:35:27.518Z,23.30
2022-08-07T18:40:50.262Z,23.10
2022-08-07T18:46:24.666Z,22.80
2022-08-07T18:52:33.635Z,22.70
2022-08-07T18:57:40.270Z,22.60
2022-08-07T19:02:42.922Z,22.50
2022-08-07T19:07:58.704Z,22.40
2022-08-07T19:13:11.697Z,22.30
2022-08-07T19:18:34.458Z,22.20
2022-08-07T19:23:58.902Z,22.10
2022-08-07T19:31:05.541Z,21.80
2022-08-07T19:34:36.335Z,21.50
2022-08-07T19:39:57.771Z,21.30
2022-08-07T19:45:10.242Z,21.20
2022-08-07T19:50:42.999Z,21.10
2022-08-07T19:55:56.603Z,20.90
2022-08-07T20:01:01.668Z,20.70
2022-08-07T20:06:15.422Z,20.40
2022-08-07T20:12:22.664Z,20.20
2022-08-07T20:16:59.936Z,19.80
2022-08-07T20:22:13.184Z,19.50
2022-08-07T20:27:22.262Z,19.30
2022-08-07T20:32:46.740Z,19.20
2022-08-07T20:37:59.570Z,19.20
2022-08-07T20:43:14.874Z,19.20
2022-08-07T20:48:29.668Z,19.10
2022-08-07T20:54:04.654Z,18.80
2022-08-07T21:00:05.088Z,18.50
2022-08-07T21:04:33.636Z,18.20
2022-08-07T21:09:53.003Z,18.00
2022-08-07T21:15:19.149Z,17.80
2022-08-07T21:20:29.861Z,17.70
2022-08-07T21:25:52.260Z,17.60
2022-08-07T21:31:10.252Z,17.40
2022-08-07T21:36:31.052Z,17.10
2022-08-07T21:41:52.410Z,16.90
2022-08-07T21:47:17.368Z,16.70
2022-08-07T21:52:32.996Z,16.50
2022-08-07T21:57:52.622Z,16.50
2022-08-07T22:03:05.697Z,16.20
2022-08-07T22:08:10.669Z,16.00
2022-08-07T22:13:24.059Z,15.90
2022-08-07T22:18:50.981Z,16.10
2022-08-07T22:23:58.487Z,16.00
2022-08-07T22:29:14.037Z,15.80
2022-08-07T22:34:29.088Z,15.80
2022-08-07T22:39:52.924Z,16.00
2022-08-07T22:45:03.646Z,16.10
2022-08-07T22:50:34.525Z,15.90
2022-08-07T22:55:49.217Z,15.50
2022-08-07T23:01:12.081Z,15.10
2022-08-07T23:06:41.595Z,14.80
2022-08-07T23:11:59.417Z,14.70
2022-08-07T23:17:30.026Z,14.50
2022-08-07T23:22:49.350Z,14.50
2022-08-07T23:28:22.719Z,14.50
2022-08-07T23:34:36.301Z,14.40
2022-08-07T23:39:24.102Z,14.20
2022-08-07T23:44:49.100Z,13.90
2022-08-07T23:50:19.510Z,13.80
2022-08-07T23:55:52.691Z,13.60
